sensor_id;sensor_type;location;lat;lon;timestamp;temperature;humidity
80367;DHT22;70058;42.660;23.366;2024-01-15T00:01:34;1.00;60.00
80367;DHT22;70058;42.660;23.366;2024-01-15T00:04:00;1.00;60.20
80367;DHT22;70058;42.660;23.366;2024-01-15T00:06:26;1.00;60.20
80367;DHT22;70058;42.660;23.366;2024-01-15T00:08:53;1.00;60.20
80367;DHT22;70058;42.660;23.366;2024-01-15T00:11:19;1.10;60.00
80367;DHT22;70058;42.660;23.366;2024-01-15T00:13:45;1.20;59.70
80367;DHT22;70058;42.660;23.366;2024-01-15T00:16:11;1.20;59.10
80367;DHT22;70058;42.660;23.366;2024-01-15T00:18:37;1.10;59.00
80367;DHT22;70058;42.660;23.366;2024-01-15T00:21:03;1.10;59.50
80367;DHT22;70058;42.660;23.366;2024-01-15T00:23:29;1.00;59.60
80367;DHT22;70058;42.660;23.366;2024-01-15T00:25:54;0.90;59.60
80367;DHT22;70058;42.660;23.366;2024-01-15T00:28:20;1.00;60.10
80367;DHT22;70058;42.660;23.366;2024-01-15T00:30:45;1.00;59.70
80367;DHT22;70058;42.660;23.366;2024-01-15T00:33:11;0.90;59.60
80367;DHT22;70058;42.660;23.366;2024-01-15T00:35:37;0.70;60.30
80367;DHT22;70058;42.660;23.366;2024-01-15T00:38:03;0.90;60.40
80367;DHT22;70058;42.660;23.366;2024-01-15T00:40:29;0.90;59.80
80367;DHT22;70058;42.660;23.366;2024-01-15T00:42:54;0.90;59.40
80367;DHT22;70058;42.660;23.366;2024-01-15T00:45:20;0.80;59.60
80367;DHT22;70058;42.660;23.366;2024-01-15T00:47:46;0.80;60.40
80367;DHT22;70058;42.660;23.366;2024-01-15T00:50:12;0.70;60.40
80367;DHT22;70058;42.660;23.366;2024-01-15T00:52:37;0.80;60.20
80367;DHT22;70058;42.660;23.366;2024-01-15T00:55:03;0.80;60.20
80367;DHT22;70058;42.660;23.366;2024-01-15T00:57:29;0.80;60.40
80367;DHT22;70058;42.660;23.366;2024-01-15T00:59:55;0.80;60.20
80367;DHT22;70058;42.660;23.366;2024-01-15T01:02:20;0.80;60.50
80367;DHT22;70058;42.660;23.366;2024-01-15T01:04:46;0.80;60.00
80367;DHT22;70058;42.660;23.366;2024-01-15T01:07:12;0.80;59.60
80367;DHT22;70058;42.660;23.366;2024-01-15T01:09:37;0.70;60.10
80367;DHT22;70058;42.660;23.366;2024-01-15T01:12:03;0.70;60.10
80367;DHT22;70058;42.660;23.366;2024-01-15T01:14:29;0.70;60.40
80367;DHT22;70058;42.660;23.366;2024-01-15T01:16:54;0.80;60.50
80367;DHT22;70058;42.660;23.366;2024-01-15T01:19:20;0.80;60.60
80367;DHT22;70058;42.660;23.366;2024-01-15T01:21:46;0.80;60.60
80367;DHT22;70058;42.660;23.366;2024-01-15T01:24:11;0.90;60.40
80367;DHT22;70058;42.660;23.366;2024-01-15T01:26:37;0.90;59.80
80367;DHT22;70058;42.660;23.366;2024-01-15T01:29:02;0.90;59.50
80367;DHT22;70058;42.660;23.366;2024-01-15T01:31:28;0.90;59.50
80367;DHT22;70058;42.660;23.366;2024-01-15T01:33:54;0.90;59.80
80367;DHT22;70058;42.660;23.366;2024-01-15T01:36:19;1.00;59.60
80367;DHT22;70058;42.660;23.366;2024-01-15T01:38:45;0.90;59.80
80367;DHT22;70058;42.660;23.366;2024-01-15T01:41:11;0.80;60.10
80367;DHT22;70058;42.660;23.366;2024-01-15T01:43:36;0.80;59.50
80367;DHT22;70058;42.660;23.366;2024-01-15T01:46:03;0.90;59.50
80367;DHT22;70058;42.660;23.366;2024-01-15T01:48:29;0.80;59.50
80367;DHT22;70058;42.660;23.366;2024-01-15T01:50:58;0.80;59.50
80367;DHT22;70058;42.660;23.366;2024-01-15T01:53:26;0.60;60.20
80367;DHT22;70058;42.660;23.366;2024-01-15T01:55:53;0.60;60.30
80367;DHT22;70058;42.660;23.366;2024-01-15T01:58:20;0.70;60.40
80367;DHT22;70058;42.660;23.366;2024-01-15T02:00:46;0.60;60.20
80367;DHT22;70058;42.660;23.366;2024-01-15T02:03:13;0.60;60.30
80367;DHT22;70058;42.660;23.366;2024-01-15T02:05:39;0.50;60.00
80367;DHT22;70058;42.660;23.366;2024-01-15T02:08:06;0.50;60.30
80367;DHT22;70058;42.660;23.366;2024-01-15T02:10:31;0.40;59.90
80367;DHT22;70058;42.660;23.366;2024-01-15T02:12:57;0.40;60.40
80367;DHT22;70058;42.660;23.366;2024-01-15T02:15:23;0.50;60.60
80367;DHT22;70058;42.660;23.366;2024-01-15T02:18:04;0.50;60.30
80367;DHT22;70058;42.660;23.366;2024-01-15T02:20:31;0.50;60.70
80367;DHT22;70058;42.660;23.366;2024-01-15T02:23:11;0.50;60.30
80367;DHT22;70058;42.660;23.366;2024-01-15T02:25:41;0.60;60.10
80367;DHT22;70058;42.660;23.366;2024-01-15T02:28:12;0.60;60.20
80367;DHT22;70058;42.660;23.366;2024-01-15T02:30:38;0.70;59.90
80367;DHT22;70058;42.660;23.366;2024-01-15T02:33:05;0.80;59.30
80367;DHT22;70058;42.660;23.366;2024-01-15T02:35:31;0.70;58.70
80367;DHT22;70058;42.660;23.366;2024-01-15T02:37:57;0.50;59.90
80367;DHT22;70058;42.660;23.366;2024-01-15T02:40:22;0.50;60.10
80367;DHT22;70058;42.660;23.366;2024-01-15T02:42:48;0.50;60.40
80367;DHT22;70058;42.660;23.366;2024-01-15T02:45:14;0.60;59.80
80367;DHT22;70058;42.660;23.366;2024-01-15T02:47:39;0.50;60.00
80367;DHT22;70058;42.660;23.366;2024-01-15T02:50:05;0.60;59.90
80367;DHT22;70058;42.660;23.366;2024-01-15T02:52:31;0.60;60.00
80367;DHT22;70058;42.660;23.366;2024-01-15T02:54:57;0.60;59.50
80367;DHT22;70058;42.660;23.366;2024-01-15T02:57:22;0.60;58.80
80367;DHT22;70058;42.660;23.366;2024-01-15T02:59:48;0.60;59.50
80367;DHT22;70058;42.660;23.366;2024-01-15T03:02:13;0.60;59.70
80367;DHT22;70058;42.660;23.366;2024-01-15T03:04:43;0.50;60.00
80367;DHT22;70058;42.660;23.366;2024-01-15T03:07:09;0.70;59.80
80367;DHT22;70058;42.660;23.366;2024-01-15T03:09:35;0.60;59.30
80367;DHT22;70058;42.660;23.366;2024-01-15T03:12:00;0.60;59.00
80367;DHT22;70058;42.660;23.366;2024-01-15T03:14:26;0.70;59.00
80367;DHT22;70058;42.660;23.366;2024-01-15T03:16:53;0.80;58.50
80367;DHT22;70058;42.660;23.366;2024-01-15T03:19:18;0.80;57.80
80367;DHT22;70058;42.660;23.366;2024-01-15T03:21:44;0.70;58.00
80367;DHT22;70058;42.660;23.366;2024-01-15T03:24:10;0.70;58.20
80367;DHT22;70058;42.660;23.366;2024-01-15T03:26:36;0.70;57.90
80367;DHT22;70058;42.660;23.366;2024-01-15T03:29:02;0.70;58.30
80367;DHT22;70058;42.660;23.366;2024-01-15T03:31:27;0.70;57.90
80367;DHT22;70058;42.660;23.366;2024-01-15T03:33:53;1.00;57.60
80367;DHT22;70058;42.660;23.366;2024-01-15T03:36:19;1.00;57.20
80367;DHT22;70058;42.660;23.366;2024-01-15T03:38:44;1.10;57.50
80367;DHT22;70058;42.660;23.366;2024-01-15T03:41:10;1.20;55.80
80367;DHT22;70058;42.660;23.366;2024-01-15T03:43:36;1.20;56.50
80367;DHT22;70058;42.660;23.366;2024-01-15T03:46:01;1.30;56.10
80367;DHT22;70058;42.660;23.366;2024-01-15T03:48:27;1.30;55.80
80367;DHT22;70058;42.660;23.366;2024-01-15T03:50:53;1.30;55.20
80367;DHT22;70058;42.660;23.366;2024-01-15T03:53:19;1.40;55.20
80367;DHT22;70058;42.660;23.366;2024-01-15T03:55:44;1.50;55.30
80367;DHT22;70058;42.660;23.366;2024-01-15T03:58:10;1.50;55.40
80367;DHT22;70058;42.660;23.366;2024-01-15T04:00:36;1.60;54.90
80367;DHT22;70058;42.660;23.366;2024-01-15T04:03:02;1.70;54.70
80367;DHT22;70058;42.660;23.366;2024-01-15T04:05:27;1.80;54.40
80367;DHT22;70058;42.660;23.366;2024-01-15T04:07:53;1.70;54.50
80367;DHT22;70058;42.660;23.366;2024-01-15T04:10:19;1.60;54.60
80367;DHT22;70058;42.660;23.366;2024-01-15T04:12:44;1.50;54.60
80367;DHT22;70058;42.660;23.366;2024-01-15T04:15:13;1.40;55.30
80367;DHT22;70058;42.660;23.366;2024-01-15T04:17:39;1.30;56.10
80367;DHT22;70058;42.660;23.366;2024-01-15T04:20:05;1.30;55.80
80367;DHT22;70058;42.660;23.366;2024-01-15T04:22:32;1.20;56.00
80367;DHT22;70058;42.660;23.366;2024-01-15T04:24:58;1.20;55.70
80367;DHT22;70058;42.660;23.366;2024-01-15T04:27:24;1.20;55.40
80367;DHT22;70058;42.660;23.366;2024-01-15T04:29:50;1.10;56.00
80367;DHT22;70058;42.660;23.366;2024-01-15T04:32:16;1.00;56.10
80367;DHT22;70058;42.660;23.366;2024-01-15T04:34:41;0.90;56.50
80367;DHT22;70058;42.660;23.366;2024-01-15T04:37:07;0.70;56.40
80367;DHT22;70058;42.660;23.366;2024-01-15T04:39:32;0.70;57.10
80367;DHT22;70058;42.660;23.366;2024-01-15T04:41:58;0.80;57.30
80367;DHT22;70058;42.660;23.366;2024-01-15T04:44:24;0.80;56.90
80367;DHT22;70058;42.660;23.366;2024-01-15T04:46:49;0.70;56.90
80367;DHT22;70058;42.660;23.366;2024-01-15T04:49:15;0.70;56.90
80367;DHT22;70058;42.660;23.366;2024-01-15T04:51:41;0.60;57.60
80367;DHT22;70058;42.660;23.366;2024-01-15T04:54:06;0.70;57.30
80367;DHT22;70058;42.660;23.366;2024-01-15T04:56:32;0.80;57.50
80367;DHT22;70058;42.660;23.366;2024-01-15T04:58:58;0.70;57.70
80367;DHT22;70058;42.660;23.366;2024-01-15T05:01:23;0.80;57.60
80367;DHT22;70058;42.660;23.366;2024-01-15T05:03:49;0.90;57.10
80367;DHT22;70058;42.660;23.366;2024-01-15T05:06:15;0.90;56.60
80367;DHT22;70058;42.660;23.366;2024-01-15T05:08:41;0.70;56.80
80367;DHT22;70058;42.660;23.366;2024-01-15T05:11:06;0.60;57.80
80367;DHT22;70058;42.660;23.366;2024-01-15T05:13:32;0.60;57.80
80367;DHT22;70058;42.660;23.366;2024-01-15T05:15:58;0.50;58.20
80367;DHT22;70058;42.660;23.366;2024-01-15T05:18:24;0.70;58.10
80367;DHT22;70058;42.660;23.366;2024-01-15T05:20:49;0.60;57.60
80367;DHT22;70058;42.660;23.366;2024-01-15T05:23:15;0.80;57.60
80367;DHT22;70058;42.660;23.366;2024-01-15T05:25:41;0.90;56.70
80367;DHT22;70058;42.660;23.366;2024-01-15T05:28:06;0.80;56.80
80367;DHT22;70058;42.660;23.366;2024-01-15T05:30:32;0.70;57.10
80367;DHT22;70058;42.660;23.366;2024-01-15T05:32:58;0.80;57.00
80367;DHT22;70058;42.660;23.366;2024-01-15T05:35:25;0.60;57.30
80367;DHT22;70058;42.660;23.366;2024-01-15T05:37:51;0.60;57.90
80367;DHT22;70058;42.660;23.366;2024-01-15T05:40:17;0.70;57.50
80367;DHT22;70058;42.660;23.366;2024-01-15T05:42:42;0.80;56.80
80367;DHT22;70058;42.660;23.366;2024-01-15T05:45:08;0.70;56.80
80367;DHT22;70058;42.660;23.366;2024-01-15T05:47:34;0.60;56.60
80367;DHT22;70058;42.660;23.366;2024-01-15T05:50:01;0.50;57.30
80367;DHT22;70058;42.660;23.366;2024-01-15T05:52:27;0.40;57.80
80367;DHT22;70058;42.660;23.366;2024-01-15T05:54:52;0.50;57.70
80367;DHT22;70058;42.660;23.366;2024-01-15T05:57:18;0.50;58.00
80367;DHT22;70058;42.660;23.366;2024-01-15T05:59:44;0.60;58.00
80367;DHT22;70058;42.660;23.366;2024-01-15T06:02:11;0.60;58.00
80367;DHT22;70058;42.660;23.366;2024-01-15T06:04:37;0.60;57.70
80367;DHT22;70058;42.660;23.366;2024-01-15T06:07:03;0.60;57.80
80367;DHT22;70058;42.660;23.366;2024-01-15T06:09:28;0.80;58.00
80367;DHT22;70058;42.660;23.366;2024-01-15T06:11:55;0.70;57.50
80367;DHT22;70058;42.660;23.366;2024-01-15T06:14:21;0.80;57.70
80367;DHT22;70058;42.660;23.366;2024-01-15T06:16:46;0.60;57.70
80367;DHT22;70058;42.660;23.366;2024-01-15T06:19:12;0.70;58.30
80367;DHT22;70058;42.660;23.366;2024-01-15T06:21:38;0.70;58.20
80367;DHT22;70058;42.660;23.366;2024-01-15T06:24:04;0.90;58.20
80367;DHT22;70058;42.660;23.366;2024-01-15T06:26:29;0.80;58.60
80367;DHT22;70058;42.660;23.366;2024-01-15T06:28:55;0.90;58.60
80367;DHT22;70058;42.660;23.366;2024-01-15T06:31:23;1.00;58.20
80367;DHT22;70058;42.660;23.366;2024-01-15T06:33:49;1.10;57.60
80367;DHT22;70058;42.660;23.366;2024-01-15T06:36:15;1.30;57.90
80367;DHT22;70058;42.660;23.366;2024-01-15T06:38:43;1.60;57.10
80367;DHT22;70058;42.660;23.366;2024-01-15T06:41:10;1.80;56.50
80367;DHT22;70058;42.660;23.366;2024-01-15T06:43:35;2.00;55.80
80367;DHT22;70058;42.660;23.366;2024-01-15T06:46:01;2.30;54.80
80367;DHT22;70058;42.660;23.366;2024-01-15T06:48:27;2.40;54.20
80367;DHT22;70058;42.660;23.366;2024-01-15T06:50:52;2.50;54.90
80367;DHT22;70058;42.660;23.366;2024-01-15T06:53:18;2.70;53.80
80367;DHT22;70058;42.660;23.366;2024-01-15T06:55:44;2.90;53.00
80367;DHT22;70058;42.660;23.366;2024-01-15T06:58:10;3.10;52.50
80367;DHT22;70058;42.660;23.366;2024-01-15T07:00:35;3.30;52.40
80367;DHT22;70058;42.660;23.366;2024-01-15T07:03:01;3.40;51.70
80367;DHT22;70058;42.660;23.366;2024-01-15T07:05:27;3.60;51.20
80367;DHT22;70058;42.660;23.366;2024-01-15T07:07:55;3.60;50.70
80367;DHT22;70058;42.660;23.366;2024-01-15T07:10:21;3.60;51.10
80367;DHT22;70058;42.660;23.366;2024-01-15T07:12:46;3.70;50.80
80367;DHT22;70058;42.660;23.366;2024-01-15T07:15:12;3.70;50.30
80367;DHT22;70058;42.660;23.366;2024-01-15T07:17:38;3.70;50.20
80367;DHT22;70058;42.660;23.366;2024-01-15T07:20:06;3.60;50.50
80367;DHT22;70058;42.660;23.366;2024-01-15T07:22:33;3.50;50.70
80367;DHT22;70058;42.660;23.366;2024-01-15T07:25:02;3.60;51.10
80367;DHT22;70058;42.660;23.366;2024-01-15T07:27:30;3.50;50.90
80367;DHT22;70058;42.660;23.366;2024-01-15T07:29:57;3.50;51.20
80367;DHT22;70058;42.660;23.366;2024-01-15T07:32:23;3.50;51.30
80367;DHT22;70058;42.660;23.366;2024-01-15T07:34:49;3.60;51.40
80367;DHT22;70058;42.660;23.366;2024-01-15T07:37:15;3.70;50.90
80367;DHT22;70058;42.660;23.366;2024-01-15T07:39:40;3.70;51.00
80367;DHT22;70058;42.660;23.366;2024-01-15T07:42:06;3.80;50.90
80367;DHT22;70058;42.660;23.366;2024-01-15T07:44:33;3.80;50.90
80367;DHT22;70058;42.660;23.366;2024-01-15T07:46:58;3.90;50.80
80367;DHT22;70058;42.660;23.366;2024-01-15T07:49:24;4.00;50.40
80367;DHT22;70058;42.660;23.366;2024-01-15T07:51:50;4.10;50.00
80367;DHT22;70058;42.660;23.366;2024-01-15T07:54:16;4.10;49.90
80367;DHT22;70058;42.660;23.366;2024-01-15T07:56:58;4.20;50.10
80367;DHT22;70058;42.660;23.366;2024-01-15T07:59:24;4.40;49.70
80367;DHT22;70058;42.660;23.366;2024-01-15T08:01:52;4.50;49.40
80367;DHT22;70058;42.660;23.366;2024-01-15T08:04:17;4.60;49.30
80367;DHT22;70058;42.660;23.366;2024-01-15T08:06:43;4.40;48.50
80367;DHT22;70058;42.660;23.366;2024-01-15T08:09:09;4.60;49.20
80367;DHT22;70058;42.660;23.366;2024-01-15T08:11:35;5.00;48.70
80367;DHT22;70058;42.660;23.366;2024-01-15T08:14:01;5.30;47.50
80367;DHT22;70058;42.660;23.366;2024-01-15T08:16:26;5.30;47.10
80367;DHT22;70058;42.660;23.366;2024-01-15T08:18:53;5.30;46.90
80367;DHT22;70058;42.660;23.366;2024-01-15T08:21:19;5.40;46.70
80367;DHT22;70058;42.660;23.366;2024-01-15T08:23:44;5.40;46.90
80367;DHT22;70058;42.660;23.366;2024-01-15T08:26:10;5.40;46.70
80367;DHT22;70058;42.660;23.366;2024-01-15T08:28:36;5.50;46.60
80367;DHT22;70058;42.660;23.366;2024-01-15T08:31:02;5.60;46.50
80367;DHT22;70058;42.660;23.366;2024-01-15T08:33:28;5.80;46.10
80367;DHT22;70058;42.660;23.366;2024-01-15T08:35:54;5.80;45.70
80367;DHT22;70058;42.660;23.366;2024-01-15T08:38:20;5.90;46.00
80367;DHT22;70058;42.660;23.366;2024-01-15T08:40:46;6.00;46.00
80367;DHT22;70058;42.660;23.366;2024-01-15T08:43:12;6.20;45.60
80367;DHT22;70058;42.660;23.366;2024-01-15T08:45:38;6.30;45.20
80367;DHT22;70058;42.660;23.366;2024-01-15T08:48:04;6.60;45.00
80367;DHT22;70058;42.660;23.366;2024-01-15T08:50:31;6.80;44.20
80367;DHT22;70058;42.660;23.366;2024-01-15T08:52:58;6.80;44.00
80367;DHT22;70058;42.660;23.366;2024-01-15T08:55:24;6.70;44.50
80367;DHT22;70058;42.660;23.366;2024-01-15T08:57:50;6.70;44.30
80367;DHT22;70058;42.660;23.366;2024-01-15T09:00:16;6.90;44.20
80367;DHT22;70058;42.660;23.366;2024-01-15T09:02:43;6.90;43.60
80367;DHT22;70058;42.660;23.366;2024-01-15T09:05:09;7.00;43.70
80367;DHT22;70058;42.660;23.366;2024-01-15T09:07:35;7.10;43.60
80367;DHT22;70058;42.660;23.366;2024-01-15T09:10:00;7.00;43.70
80367;DHT22;70058;42.660;23.366;2024-01-15T09:12:27;6.90;43.70
80367;DHT22;70058;42.660;23.366;2024-01-15T09:14:53;6.80;44.20
80367;DHT22;70058;42.660;23.366;2024-01-15T09:17:20;6.90;44.30
80367;DHT22;70058;42.660;23.366;2024-01-15T09:19:45;7.00;44.40
80367;DHT22;70058;42.660;23.366;2024-01-15T09:22:13;7.10;44.10
80367;DHT22;70058;42.660;23.366;2024-01-15T09:24:42;7.10;43.80
80367;DHT22;70058;42.660;23.366;2024-01-15T09:27:08;7.20;43.60
80367;DHT22;70058;42.660;23.366;2024-01-15T09:29:34;7.40;43.60
80367;DHT22;70058;42.660;23.366;2024-01-15T09:32:02;7.50;43.00
80367;DHT22;70058;42.660;23.366;2024-01-15T09:34:29;7.50;42.70
80367;DHT22;70058;42.660;23.366;2024-01-15T09:36:55;7.20;42.90
80367;DHT22;70058;42.660;23.366;2024-01-15T09:39:21;6.90;43.30
80367;DHT22;70058;42.660;23.366;2024-01-15T09:41:49;6.80;43.80
80367;DHT22;70058;42.660;23.366;2024-01-15T09:44:15;6.70;44.10
80367;DHT22;70058;42.660;23.366;2024-01-15T09:46:42;6.60;44.40
80367;DHT22;70058;42.660;23.366;2024-01-15T09:49:10;6.50;44.70
80367;DHT22;70058;42.660;23.366;2024-01-15T09:51:36;6.50;44.90
80367;DHT22;70058;42.660;23.366;2024-01-15T09:54:02;6.50;45.10
80367;DHT22;70058;42.660;23.366;2024-01-15T09:56:30;6.40;45.20
80367;DHT22;70058;42.660;23.366;2024-01-15T09:58:57;6.10;45.50
80367;DHT22;70058;42.660;23.366;2024-01-15T10:01:23;6.10;45.70
80367;DHT22;70058;42.660;23.366;2024-01-15T10:03:50;6.10;45.70
80367;DHT22;70058;42.660;23.366;2024-01-15T10:06:17;6.10;46.00
80367;DHT22;70058;42.660;23.366;2024-01-15T10:08:47;5.90;46.20
80367;DHT22;70058;42.660;23.366;2024-01-15T10:11:13;5.90;46.40
80367;DHT22;70058;42.660;23.366;2024-01-15T10:13:39;5.90;46.40
80367;DHT22;70058;42.660;23.366;2024-01-15T10:16:06;6.20;46.00
80367;DHT22;70058;42.660;23.366;2024-01-15T10:18:32;6.30;46.00
80367;DHT22;70058;42.660;23.366;2024-01-15T10:20:58;6.30;45.70
80367;DHT22;70058;42.660;23.366;2024-01-15T10:23:25;6.40;46.00
80367;DHT22;70058;42.660;23.366;2024-01-15T10:25:50;6.60;45.90
80367;DHT22;70058;42.660;23.366;2024-01-15T10:28:19;6.90;45.20
80367;DHT22;70058;42.660;23.366;2024-01-15T10:30:45;7.00;44.70
80367;DHT22;70058;42.660;23.366;2024-01-15T10:33:11;7.20;44.20
80367;DHT22;70058;42.660;23.366;2024-01-15T10:35:38;7.30;43.80
80367;DHT22;70058;42.660;23.366;2024-01-15T10:38:05;7.50;43.60
80367;DHT22;70058;42.660;23.366;2024-01-15T10:40:31;7.70;43.60
80367;DHT22;70058;42.660;23.366;2024-01-15T10:43:00;8.00;43.50
80367;DHT22;70058;42.660;23.366;2024-01-15T10:45:26;8.10;42.40
80367;DHT22;70058;42.660;23.366;2024-01-15T10:47:52;8.10;42.10
80367;DHT22;70058;42.660;23.366;2024-01-15T10:50:19;8.10;42.30
80367;DHT22;70058;42.660;23.366;2024-01-15T10:52:44;8.10;42.30
80367;DHT22;70058;42.660;23.366;2024-01-15T10:55:11;8.10;42.50
80367;DHT22;70058;42.660;23.366;2024-01-15T10:57:37;8.20;42.60
80367;DHT22;70058;42.660;23.366;2024-01-15T11:00:04;8.30;42.60
80367;DHT22;70058;42.660;23.366;2024-01-15T11:02:35;8.40;41.30
80367;DHT22;70058;42.660;23.366;2024-01-15T11:05:01;8.60;41.60
80367;DHT22;70058;42.660;23.366;2024-01-15T11:07:27;8.80;41.00
80367;DHT22;70058;42.660;23.366;2024-01-15T11:09:55;9.00;41.40
80367;DHT22;70058;42.660;23.366;2024-01-15T11:12:21;9.20;39.70
80367;DHT22;70058;42.660;23.366;2024-01-15T11:14:48;9.30;39.10
80367;DHT22;70058;42.660;23.366;2024-01-15T11:17:15;9.50;39.20
80367;DHT22;70058;42.660;23.366;2024-01-15T11:19:50;9.70;39.00
80367;DHT22;70058;42.660;23.366;2024-01-15T11:27:51;9.90;38.80
80367;DHT22;70058;42.660;23.366;2024-01-15T11:30:19;10.00;38.40
80367;DHT22;70058;42.660;23.366;2024-01-15T11:32:45;10.00;38.90
80367;DHT22;70058;42.660;23.366;2024-01-15T11:35:13;10.10;38.40
80367;DHT22;70058;42.660;23.366;2024-01-15T11:43:03;10.10;38.50
80367;DHT22;70058;42.660;23.366;2024-01-15T11:45:30;10.30;38.10
80367;DHT22;70058;42.660;23.366;2024-01-15T11:48:13;10.30;37.50
80367;DHT22;70058;42.660;23.366;2024-01-15T11:50:45;10.10;37.30
80367;DHT22;70058;42.660;23.366;2024-01-15T11:55:58;10.30;37.80
80367;DHT22;70058;42.660;23.366;2024-01-15T11:58:25;10.40;37.40
80367;DHT22;70058;42.660;23.366;2024-01-15T12:00:51;10.40;38.00
80367;DHT22;70058;42.660;23.366;2024-01-15T12:03:21;10.30;38.10
80367;DHT22;70058;42.660;23.366;2024-01-15T12:05:47;10.30;37.70
80367;DHT22;70058;42.660;23.366;2024-01-15T12:08:13;10.20;37.50
80367;DHT22;70058;42.660;23.366;2024-01-15T12:10:40;10.20;38.00
80367;DHT22;70058;42.660;23.366;2024-01-15T12:13:16;10.10;38.50
80367;DHT22;70058;42.660;23.366;2024-01-15T12:15:44;10.00;38.60
80367;DHT22;70058;42.660;23.366;2024-01-15T12:18:13;9.90;38.70
80367;DHT22;70058;42.660;23.366;2024-01-15T12:20:40;9.90;39.10
80367;DHT22;70058;42.660;23.366;2024-01-15T12:23:06;9.90;39.70
80367;DHT22;70058;42.660;23.366;2024-01-15T12:25:32;9.90;39.50
80367;DHT22;70058;42.660;23.366;2024-01-15T12:27:59;9.90;39.20
80367;DHT22;70058;42.660;23.366;2024-01-15T12:30:29;9.90;38.60
80367;DHT22;70058;42.660;23.366;2024-01-15T12:32:57;9.90;39.30
80367;DHT22;70058;42.660;23.366;2024-01-15T12:35:24;9.90;39.60
80367;DHT22;70058;42.660;23.366;2024-01-15T12:37:51;10.00;39.50
80367;DHT22;70058;42.660;23.366;2024-01-15T12:40:21;10.10;38.50
80367;DHT22;70058;42.660;23.366;2024-01-15T12:42:47;10.30;38.20
80367;DHT22;70058;42.660;23.366;2024-01-15T12:45:14;10.40;38.20
80367;DHT22;70058;42.660;23.366;2024-01-15T12:47:40;10.40;39.00
80367;DHT22;70058;42.660;23.366;2024-01-15T12:50:10;10.40;38.50
80367;DHT22;70058;42.660;23.366;2024-01-15T12:52:37;10.40;38.30
80367;DHT22;70058;42.660;23.366;2024-01-15T12:55:06;10.30;38.50
80367;DHT22;70058;42.660;23.366;2024-01-15T12:57:33;10.20;38.30
80367;DHT22;70058;42.660;23.366;2024-01-15T12:59:59;10.10;38.50
80367;DHT22;70058;42.660;23.366;2024-01-15T13:02:25;10.00;38.30
80367;DHT22;70058;42.660;23.366;2024-01-15T13:04:50;9.90;38.90
80367;DHT22;70058;42.660;23.366;2024-01-15T13:07:16;9.80;39.80
80367;DHT22;70058;42.660;23.366;2024-01-15T13:09:42;9.70;39.90
80367;DHT22;70058;42.660;23.366;2024-01-15T13:12:09;9.60;40.40
80367;DHT22;70058;42.660;23.366;2024-01-15T13:14:34;9.70;39.50
80367;DHT22;70058;42.660;23.366;2024-01-15T13:17:00;9.60;39.60
80367;DHT22;70058;42.660;23.366;2024-01-15T13:19:26;9.50;40.60
80367;DHT22;70058;42.660;23.366;2024-01-15T13:21:53;9.50;40.40
80367;DHT22;70058;42.660;23.366;2024-01-15T13:24:20;9.40;40.50
80367;DHT22;70058;42.660;23.366;2024-01-15T13:26:45;9.40;40.50
80367;DHT22;70058;42.660;23.366;2024-01-15T13:29:11;9.30;40.90
80367;DHT22;70058;42.660;23.366;2024-01-15T13:31:37;9.30;41.40
80367;DHT22;70058;42.660;23.366;2024-01-15T13:34:03;9.20;40.90
80367;DHT22;70058;42.660;23.366;2024-01-15T13:36:29;9.20;40.70
80367;DHT22;70058;42.660;23.366;2024-01-15T13:38:54;9.30;41.70
80367;DHT22;70058;42.660;23.366;2024-01-15T13:41:21;9.40;41.90
80367;DHT22;70058;42.660;23.366;2024-01-15T13:43:54;9.40;41.60
80367;DHT22;70058;42.660;23.366;2024-01-15T13:46:24;9.30;41.20
80367;DHT22;70058;42.660;23.366;2024-01-15T13:48:50;9.30;41.20
80367;DHT22;70058;42.660;23.366;2024-01-15T13:51:15;9.40;41.80
80367;DHT22;70058;42.660;23.366;2024-01-15T13:53:41;9.30;42.10
80367;DHT22;70058;42.660;23.366;2024-01-15T13:56:07;9.40;41.90
80367;DHT22;70058;42.660;23.366;2024-01-15T13:58:35;9.40;41.10
80367;DHT22;70058;42.660;23.366;2024-01-15T14:01:01;9.40;41.80
80367;DHT22;70058;42.660;23.366;2024-01-15T14:03:26;9.40;41.80
80367;DHT22;70058;42.660;23.366;2024-01-15T14:05:52;9.50;41.80
80367;DHT22;70058;42.660;23.366;2024-01-15T14:08:18;9.50;41.90
80367;DHT22;70058;42.660;23.366;2024-01-15T14:10:46;9.40;42.30
80367;DHT22;70058;42.660;23.366;2024-01-15T14:13:12;9.30;42.30
80367;DHT22;70058;42.660;23.366;2024-01-15T14:15:37;9.10;43.00
80367;DHT22;70058;42.660;23.366;2024-01-15T14:18:03;9.10;43.70
80367;DHT22;70058;42.660;23.366;2024-01-15T14:20:29;9.10;43.30
80367;DHT22;70058;42.660;23.366;2024-01-15T14:22:55;9.10;43.00
80367;DHT22;70058;42.660;23.366;2024-01-15T14:25:21;9.10;42.90
80367;DHT22;70058;42.660;23.366;2024-01-15T14:27:47;9.10;42.50
80367;DHT22;70058;42.660;23.366;2024-01-15T14:30:13;9.00;42.00
80367;DHT22;70058;42.660;23.366;2024-01-15T14:32:40;8.90;43.50
80367;DHT22;70058;42.660;23.366;2024-01-15T14:35:06;8.80;44.20
80367;DHT22;70058;42.660;23.366;2024-01-15T14:37:39;8.80;44.10
80367;DHT22;70058;42.660;23.366;2024-01-15T14:40:07;8.70;44.60
80367;DHT22;70058;42.660;23.366;2024-01-15T14:42:34;8.50;44.20
80367;DHT22;70058;42.660;23.366;2024-01-15T14:45:00;8.50;44.40
80367;DHT22;70058;42.660;23.366;2024-01-15T14:47:27;8.50;44.90
80367;DHT22;70058;42.660;23.366;2024-01-15T14:49:53;8.50;45.60
80367;DHT22;70058;42.660;23.366;2024-01-15T14:52:18;8.40;45.30
80367;DHT22;70058;42.660;23.366;2024-01-15T14:54:45;8.40;44.70
80367;DHT22;70058;42.660;23.366;2024-01-15T14:57:13;8.40;43.80
80367;DHT22;70058;42.660;23.366;2024-01-15T14:59:39;8.40;43.70
80367;DHT22;70058;42.660;23.366;2024-01-15T15:02:05;8.30;44.60
80367;DHT22;70058;42.660;23.366;2024-01-15T15:04:32;8.30;44.90
80367;DHT22;70058;42.660;23.366;2024-01-15T15:06:57;8.20;44.00
80367;DHT22;70058;42.660;23.366;2024-01-15T15:09:23;8.20;44.00
80367;DHT22;70058;42.660;23.366;2024-01-15T15:11:49;8.20;44.20
80367;DHT22;70058;42.660;23.366;2024-01-15T15:14:16;8.30;44.40
80367;DHT22;70058;42.660;23.366;2024-01-15T15:16:42;8.30;44.80
80367;DHT22;70058;42.660;23.366;2024-01-15T15:19:08;8.00;44.90
80367;DHT22;70058;42.660;23.366;2024-01-15T15:21:33;7.90;45.60
80367;DHT22;70058;42.660;23.366;2024-01-15T15:23:59;7.80;45.90
80367;DHT22;70058;42.660;23.366;2024-01-15T15:26:26;7.90;45.50
80367;DHT22;70058;42.660;23.366;2024-01-15T15:28:51;7.80;45.20
80367;DHT22;70058;42.660;23.366;2024-01-15T15:31:17;7.70;45.60
80367;DHT22;70058;42.660;23.366;2024-01-15T15:33:43;7.60;46.10
80367;DHT22;70058;42.660;23.366;2024-01-15T15:36:10;7.50;46.60
80367;DHT22;70058;42.660;23.366;2024-01-15T15:38:38;7.50;47.20